Flight Track Log - Related Links

Times and Time Zones

All times are in EDT time to prevent confusion due to time zone crossing. See the C-GGBL flight status page for this flight to view local times or setup timezone preferences in your user account.

Time Position Orientation Groundspeed Altitude Reporting Facility
EDT Latitude Longitude Course Direction KTS MPH feet Rate Location/Type
Fri 02:57:41 PM 51.0833 -114.0333 192° South 180 207 3,700  Level Edmonton Center
Fri 02:58:41 PM 51.0333 -114.0500 192° South 200 230 6,000 2,450 Climbing Edmonton Center
Fri 02:59:41 PM 50.9667 -114.0333 171° South 240 276 8,600 2,450 Climbing Edmonton Center
Fri 03:00:41 PM 50.9167 -114.0833 212° Southwest 260 299 10,900 2,300 Climbing Edmonton Center
Fri 03:01:41 PM 50.9333 -114.2167 214° Southwest 300 345 13,200 2,400 Climbing Edmonton Center
Fri 03:02:41 PM 50.9500 -114.3500 281° West 320 368 15,700 2,350 Climbing Edmonton Center
Fri 03:03:41 PM 50.9833 -114.5000 289° West 330 380 17,900 2,100 Climbing Edmonton Center
Fri 03:04:41 PM 50.9833 -114.6333 270° West 340 391 19,900 1,900 Climbing Edmonton Center
Fri 03:05:41 PM 51.0000 -114.8000 279° West 350 403 21,700 1,700 Climbing Edmonton Center
Fri 03:06:41 PM 50.9833 -114.9500 260° West 350 403 23,300 1,650 Climbing Edmonton Center
Fri 03:07:41 PM 50.9500 -115.1167 252° West 360 414 25,000 1,500 Climbing Edmonton Center
Fri 03:08:41 PM 50.9500 -115.2667 270° West 360 414 26,300 1,300 Climbing Edmonton Center
Fri 03:09:41 PM 50.9167 -115.4333 252° West 370 426 27,600 1,350 Climbing Edmonton Center
Fri 03:10:41 PM 50.8833 -115.5833 251° West 370 426 29,000 1,200 Climbing Edmonton Center
Fri 03:11:41 PM 50.8667 -115.7333 260° West 380 437 30,000 1,000 Climbing Edmonton Center
Fri 03:12:41 PM 50.8333 -115.9167 254° West 380 437 31,000 1,000 Climbing Edmonton Center
Fri 03:13:41 PM 50.8000 -116.0667 251° West 380 437 32,000 1,018 Climbing Edmonton Center
Fri 03:14:33 PM 50.7833 -116.1500 252° West 380 437 32,900 911 Climbing Vancouver Center
Fri 03:15:33 PM 50.7667 -116.3167 261° West 380 437 33,700 700 Climbing Vancouver Center
Fri 03:16:33 PM 50.7500 -116.4833 261° West 390 449 34,300 550 Climbing Vancouver Center
Fri 03:17:33 PM 50.7167 -116.6500 253° West 390 449 34,800 550 Climbing Vancouver Center
Fri 03:18:33 PM 50.7000 -116.8000 260° West 390 449 35,400 400 Climbing Vancouver Center
Fri 03:19:33 PM 50.6667 -116.9667 253° West 390 449 35,600 200 Climbing Vancouver Center
Fri 03:20:33 PM 50.6500 -117.1500 262° West 400 460 35,800 200 Climbing Vancouver Center
Fri 03:21:33 PM 50.6167 -117.3167 253° West 410 472 36,000 100 Climbing Vancouver Center
Fri 03:22:33 PM 50.5833 -117.5167 255° West 420 483 36,000  Level Vancouver Center
Fri 03:23:33 PM 50.5667 -117.7000 262° West 420 483 36,000  Level Vancouver Center
Fri 03:24:33 PM 50.5167 -117.8667 245° Southwest 420 483 36,000  Level Vancouver Center
Fri 03:25:33 PM 50.5000 -118.0500 262° West 420 483 36,000  Level Vancouver Center
Fri 03:26:33 PM 50.4667 -118.2000 251° West 420 483 36,000  Level Vancouver Center
Fri 03:27:33 PM 50.4333 -118.4000 255° West 430 495 36,000  Level Vancouver Center
Fri 03:28:33 PM 50.4000 -118.5833 254° West 430 495 36,000  Level Vancouver Center
Fri 03:29:33 PM 50.3833 -118.7500 261° West 430 495 36,000  Level Vancouver Center
Fri 03:30:33 PM 50.3333 -118.9333 247° West 430 495 36,000  Level Vancouver Center
Fri 03:31:33 PM 50.3167 -119.1167 262° West 420 483 36,000  Level Vancouver Center
Fri 03:32:33 PM 50.2833 -119.3000 254° West 420 483 36,000  Level Vancouver Center
Fri 03:33:33 PM 50.2333 -119.4667 245° Southwest 420 483 36,000  Level Vancouver Center
Fri 03:34:33 PM 50.2167 -119.6167 260° West 420 483 36,000  Level Vancouver Center
Fri 03:35:33 PM 50.1833 -119.8000 254° West 410 472 36,000  Level Vancouver Center
Fri 03:36:33 PM 50.1667 -119.9667 261° West 410 472 36,000  Level Vancouver Center
Fri 03:37:33 PM 50.1167 -120.1500 247° West 410 472 36,000  Level Vancouver Center
Fri 03:38:33 PM 50.0833 -120.3333 254° West 410 472 36,000  Level Vancouver Center
Fri 03:39:33 PM 50.0667 -120.5000 261° West 420 483 36,000  Level Vancouver Center
Fri 03:40:33 PM 50.0167 -120.6833 247° West 420 483 36,000  Level Vancouver Center
Fri 03:41:33 PM 49.9833 -120.8333 251° West 410 472 36,000  Level Vancouver Center
Fri 03:42:33 PM 49.9500 -121.0167 254° West 410 472 36,000  Level Vancouver Center
Fri 03:43:33 PM 49.9333 -121.1833 261° West 410 472 36,000  Level Vancouver Center
Fri 03:49:17 PM 49.7393 -122.1640 261° West 414 476 36,000  Level FlightAware ADS-B
Fri 03:52:59 PM 49.6063 -122.7890 252° West 417 480 36,000  Level FlightAware ADS-B
Fri 03:53:29 PM 49.5878 -122.8740 251° West 416 479 36,000  Level FlightAware ADS-B
Fri 03:54:26 PM 49.5531 -123.0340 252° West 414 476 36,000 224 Level FlightAware ADS-B
Fri 03:56:10 PM 49.4898 -123.3210 251° West 412 474 36,600 358 Climbing FlightAware ADS-B
Fri 03:56:40 PM 49.4714 -123.4040 251° West 410 472 36,800 400 Climbing FlightAware ADS-B
Fri 03:57:10 PM 49.4531 -123.4860 251° West 410 472 37,000 295 Climbing FlightAware ADS-B
Fri 03:57:41 PM 49.4346 -123.5690 251° West 409 471 37,100 269 Climbing FlightAware ADS-B
Fri 03:58:17 PM 49.4122 -123.6690 251° West 409 471 37,300 273 Climbing FlightAware ADS-B
Fri 03:58:47 PM 49.3938 -123.7510 251° West 407 468 37,400 300 Climbing FlightAware ADS-B
Fri 03:59:17 PM 49.3752 -123.8330 251° West 406 467 37,600 300 Climbing FlightAware ADS-B
Fri 03:59:47 PM 49.3567 -123.9140 251° West 405 466 37,700 295 Climbing FlightAware ADS-B
Fri 04:00:18 PM 49.3377 -123.9970 251° West 403 464 37,900 295 Climbing FlightAware ADS-B
Fri 04:00:48 PM 49.3191 -124.0780 251° West 402 463 38,000 98 Climbing FlightAware ADS-B
Fri 04:01:19 PM 49.3005 -124.1590 251° West 403 464 38,000  Level FlightAware ADS-B
Fri 04:01:49 PM 49.2816 -124.2410 251° West 404 465 38,000  Level FlightAware ADS-B
Fri 04:02:19 PM 49.2628 -124.3220 250° West 403 464 38,000  Level FlightAware ADS-B
Fri 04:02:49 PM 49.2441 -124.4030 251° West 405 466 38,000  Level FlightAware ADS-B
Fri 04:03:42 PM 49.2110 -124.5450 250° West 405 466 38,000  Level FlightAware ADS-B
Fri 04:05:03 PM 49.1596 -124.7620 250° West 405 466 38,000  Level FlightAware ADS-B
Fri 04:05:34 PM 49.1399 -124.8450 250° West 405 466 38,000  Level FlightAware ADS-B
Fri 04:06:05 PM 49.1206 -124.9260 250° West 406 467 38,000  Level FlightAware ADS-B
Fri 04:06:35 PM 49.1011 -125.0080 250° West 406 467 38,000  Level FlightAware ADS-B
Fri 04:07:06 PM 49.0812 -125.0900 250° West 406 467 38,000  Level FlightAware ADS-B
Fri 04:07:42 PM 49.0578 -125.1880 250° West 406 467 38,000  Level FlightAware ADS-B
Fri 04:09:27 PM 48.9893 -125.4700 250° West 406 467 38,000  Level FlightAware ADS-B
Fri 04:10:33 PM 48.9167 -125.6500 250° West 410 472 38,000  Level Vancouver Center
Fri 04:11:33 PM 48.8833 -125.8000 251° West 410 472 38,000  Level Vancouver Center
Fri 04:12:33 PM 48.8500 -125.9500 251° West 410 472 38,000  Level Vancouver Center
Fri 04:13:33 PM 48.8167 -126.1333 255° West 400 460 38,000  Level Vancouver Center
Fri 04:14:33 PM 48.7833 -126.2833 251° West 400 460 38,000  Level Vancouver Center
Fri 04:15:33 PM 48.7167 -126.4500 239° Southwest 410 472 38,000  Level Vancouver Center
Fri 04:16:33 PM 48.6833 -126.6000 251° West 410 472 38,000  Level Vancouver Center
Fri 04:17:33 PM 48.6500 -126.7500 251° West 400 460 38,000  Level Vancouver Center
Fri 04:18:33 PM 48.6167 -126.9333 255° West 410 472 38,000  Level Vancouver Center
Fri 04:19:33 PM 48.5667 -127.0833 243° Southwest 410 472 38,000  Level Vancouver Center
Fri 04:20:33 PM 48.5167 -127.2500 246° West 410 472 38,000  Level Vancouver Center
Fri 04:21:33 PM 48.4833 -127.4000 252° West 410 472 38,000  Level Vancouver Center
Fri 04:22:33 PM 48.4500 -127.5667 253° West 420 483 38,000  Level Vancouver Center
Fri 04:23:33 PM 48.3833 -127.7167 236° Southwest 420 483 38,000  Level Vancouver Center
Fri 04:24:33 PM 48.3500 -127.9000 255° West 410 472 38,000  Level Vancouver Center
Fri 04:25:33 PM 48.3167 -128.0333 249° West 420 483 38,000  Level Vancouver Center
Fri 04:26:33 PM 48.2500 -128.2167 241° Southwest 420 483 38,000  Level Vancouver Center
Fri 04:27:33 PM 48.2167 -128.3667 252° West 420 483 38,000  Level Vancouver Center
Fri 04:28:33 PM 48.1500 -128.5333 239° Southwest 420 483 38,000  Level Vancouver Center
Fri 04:29:33 PM 48.1167 -128.7000 253° West 430 495 38,000  Level Vancouver Center
Fri 04:30:33 PM 48.0667 -128.8500 244° Southwest 420 483 38,000  Level Vancouver Center
Fri 04:31:33 PM 48.0167 -129.0167 246° West 420 483 38,000  Level Vancouver Center
Fri 04:32:33 PM 47.9667 -129.1667 244° Southwest 430 495 38,000  Level Vancouver Center
Fri 04:34:00 PM 47.8941 -129.3949 245° Southwest  Level FlightAware Approximate
Fri 04:41:00 PM 47.5374 -130.4880 245° Southwest  Level FlightAware Approximate
Fri 04:42:00 PM 47.4860 -130.6432 244° Southwest  Level FlightAware Approximate
Fri 04:43:00 PM 47.4353 -130.7988 244° Southwest  Level FlightAware Approximate
Fri 04:44:00 PM 47.3845 -130.9541 244° Southwest  Level FlightAware Approximate
Fri 04:45:00 PM 47.3334 -131.1091 244° Southwest  Level FlightAware Approximate
Fri 04:46:00 PM 47.2821 -131.2638 244° Southwest  Level FlightAware Approximate
Fri 04:47:00 PM 47.2306 -131.4182 244° Southwest  Level FlightAware Approximate
Fri 04:48:00 PM 47.1789 -131.5723 244° Southwest  Level FlightAware Approximate
Fri 04:49:00 PM 47.1270 -131.7261 244° Southwest  Level FlightAware Approximate
Fri 04:50:00 PM 47.0749 -131.8796 244° Southwest  Level FlightAware Approximate
Fri 04:51:00 PM 47.0226 -132.0328 243° Southwest  Level FlightAware Approximate
Fri 04:52:00 PM 46.9761 -132.1896 244° Southwest  Level FlightAware Approximate
Fri 04:52:49 PM 48.3333 -128.0000 246° West 428 493 38,000  Level Oakland Oceanic (ODAPS)
Fri 04:53:00 PM 46.9254 -132.3437 244° Southwest  Level FlightAware Approximate
Fri 04:53:34 PM 47.0000 -132.1333 244° Southwest 453 521 38,000  Level Oakland Oceanic (ODAPS)
Fri 04:54:00 PM 46.8744 -132.4975 244° Southwest  Level FlightAware Approximate
Fri 04:55:00 PM 46.8233 -132.6509 244° Southwest  Level FlightAware Approximate
Fri 04:56:00 PM 46.7719 -132.8041 244° Southwest  Level FlightAware Approximate
Fri 04:57:00 PM 46.7204 -132.9570 244° Southwest  Level FlightAware Approximate
Fri 04:58:00 PM 46.6686 -133.1096 244° Southwest  Level FlightAware Approximate
Fri 04:59:00 PM 46.5745 -133.3984 243° Southwest 428 493 38,000  Level FlightAware Transoceanic
Fri 05:00:00 PM 46.5008 -133.6115 243° Southwest 453 521 38,000  Level FlightAware Transoceanic
Fri 05:01:00 PM 46.4441 -133.7740 243° Southwest 453 521 38,000  Level FlightAware Transoceanic
Fri 05:02:00 PM 46.3872 -133.9362 243° Southwest 453 521 38,000  Level FlightAware Transoceanic
Fri 05:03:00 PM 46.3302 -134.0981 243° Southwest 453 521 38,000  Level FlightAware Transoceanic
Fri 05:04:00 PM 46.2728 -134.2596 243° Southwest 453 521 38,000  Level FlightAware Transoceanic
Fri 05:05:00 PM 46.2153 -134.4208 243° Southwest 453 521 38,000  Level FlightAware Transoceanic
Fri 05:06:00 PM 46.1575 -134.5817 243° Southwest 453 521 38,000  Level FlightAware Transoceanic
Fri 05:07:00 PM 46.0995 -134.7422 242° Southwest 453 521 38,000  Level FlightAware Transoceanic
Fri 05:08:00 PM 46.0413 -134.9024 242° Southwest 453 521 38,000  Level FlightAware Transoceanic
Fri 05:09:00 PM 45.9828 -135.0622 242° Southwest 453 521 38,000  Level FlightAware Transoceanic
Fri 05:10:00 PM 45.9241 -135.2217 242° Southwest 453 521 38,000  Level FlightAware Transoceanic
Fri 05:11:00 PM 45.8653 -135.3809 242° Southwest 453 521 38,000  Level FlightAware Transoceanic
Fri 05:12:00 PM 45.8061 -135.5397 242° Southwest 453 521 38,000  Level FlightAware Transoceanic
Fri 05:13:00 PM 45.7468 -135.6982 242° Southwest 453 521 38,000  Level FlightAware Transoceanic
Fri 05:14:00 PM 45.6873 -135.8564 242° Southwest 453 521 38,000  Level FlightAware Transoceanic
Fri 05:15:00 PM 45.6275 -136.0142 241° Southwest 453 521 38,000  Level FlightAware Transoceanic
Fri 05:16:00 PM 45.5675 -136.1716 241° Southwest 453 521 38,000  Level FlightAware Transoceanic
Fri 05:17:00 PM 45.5073 -136.3288 241° Southwest 453 521 38,000  Level FlightAware Transoceanic
Fri 05:18:00 PM 45.4469 -136.4856 241° Southwest 453 521 38,000  Level FlightAware Transoceanic
Fri 05:19:00 PM 45.3862 -136.6421 241° Southwest 453 521 38,000  Level FlightAware Transoceanic
Fri 05:20:00 PM 45.3254 -136.7982 241° Southwest 453 521 38,000  Level FlightAware Transoceanic
Fri 05:21:00 PM 45.2643 -136.9540 241° Southwest 453 521 38,000  Level FlightAware Transoceanic
Fri 05:22:00 PM 45.2031 -137.1095 241° Southwest 453 521 38,000  Level FlightAware Transoceanic
Fri 05:23:00 PM 45.1416 -137.2646 241° Southwest 453 521 38,000  Level FlightAware Transoceanic
Fri 05:24:00 PM 45.0799 -137.4194 240° Southwest 453 521 38,000  Level FlightAware Transoceanic
Fri 05:25:00 PM 45.0180 -137.5738 240° Southwest 453 521 38,000  Level FlightAware Transoceanic
Fri 05:26:00 PM 44.9559 -137.7280 240° Southwest 453 521 38,000  Level FlightAware Transoceanic
Fri 05:27:00 PM 44.8936 -137.8818 240° Southwest 453 521 38,000  Level FlightAware Transoceanic
Fri 05:28:00 PM 44.8311 -138.0352 240° Southwest 453 521 38,000  Level FlightAware Transoceanic
Fri 05:29:00 PM 44.7683 -138.1883 240° Southwest 453 521 38,000  Level FlightAware Transoceanic
Fri 05:30:00 PM 44.7054 -138.3411 240° Southwest 453 521 38,000  Level FlightAware Transoceanic
Fri 05:31:00 PM 44.6423 -138.4936 240° Southwest 453 521 38,000  Level FlightAware Transoceanic
Fri 05:32:00 PM 44.5790 -138.6457 240° Southwest 453 521 38,000  Level FlightAware Transoceanic
Fri 05:33:00 PM 44.5154 -138.7975 240° Southwest 453 521 38,000  Level FlightAware Transoceanic
Fri 05:34:00 PM 44.4517 -138.9490 239° Southwest 453 521 38,000  Level FlightAware Transoceanic
Fri 05:35:00 PM 44.3877 -139.1001 239° Southwest 453 521 38,000  Level FlightAware Transoceanic
Fri 05:36:00 PM 44.3236 -139.2509 239° Southwest 453 521 38,000  Level FlightAware Transoceanic
Fri 05:37:00 PM 44.2593 -139.4014 239° Southwest 453 521 38,000  Level FlightAware Transoceanic
Fri 05:38:00 PM 44.1948 -139.5515 239° Southwest 453 521 38,000  Level FlightAware Transoceanic
Fri 05:39:00 PM 44.1300 -139.7014 239° Southwest 453 521 38,000  Level FlightAware Transoceanic
Fri 05:40:00 PM 44.0651 -139.8508 239° Southwest 453 521 38,000  Level FlightAware Transoceanic
Fri 05:41:00 PM 44.0000 -140.0000 225° Southwest 453 521 38,000  Level FlightAware Transoceanic
Fri 05:42:00 PM 43.9051 -140.1297 224° Southwest 453 521 38,000  Level FlightAware Transoceanic
Fri 05:42:56 PM 44.0000 -140.0000 225° Southwest 479 551 38,000  Level Oakland Oceanic (ODAPS)
Fri 05:43:00 PM 43.8101 -140.2590 224° Southwest 453 521 38,000  Level FlightAware Transoceanic
Fri 05:44:00 PM 43.7150 -140.3878 224° Southwest 453 521 38,000  Level FlightAware Transoceanic
Fri 05:45:00 PM 43.6197 -140.5163 224° Southwest 453 521 38,000  Level FlightAware Transoceanic
Fri 05:46:00 PM 43.5242 -140.6444 224° Southwest 453 521 38,000  Level FlightAware Transoceanic
Fri 05:47:00 PM 43.4286 -140.7720 224° Southwest 453 521 38,000  Level FlightAware Transoceanic
Fri 05:48:00 PM 43.3329 -140.8992 224° Southwest 453 521 38,000  Level FlightAware Transoceanic
Fri 05:49:00 PM 43.2370 -141.0261 224° Southwest 479 551 38,000  Level FlightAware Transoceanic
Fri 05:50:00 PM 43.1410 -141.1525 224° Southwest 479 551 38,000  Level FlightAware Transoceanic
Fri 05:51:00 PM 43.0448 -141.2786 224° Southwest 479 551 38,000  Level FlightAware Transoceanic
Fri 05:52:00 PM 42.9486 -141.4043 224° Southwest 479 551 38,000  Level FlightAware Transoceanic
Fri 05:53:00 PM 42.8521 -141.5295 224° Southwest 479 551 38,000  Level FlightAware Transoceanic
Fri 05:54:00 PM 42.7556 -141.6544 223° Southwest 479 551 38,000  Level FlightAware Transoceanic
Fri 05:55:00 PM 42.6589 -141.7789 223° Southwest 479 551 38,000  Level FlightAware Transoceanic
Fri 05:56:00 PM 42.5620 -141.9030 223° Southwest 479 551 38,000  Level FlightAware Transoceanic
Fri 05:57:00 PM 42.4651 -142.0267 223° Southwest 479 551 38,000  Level FlightAware Transoceanic
Fri 05:58:00 PM 42.3680 -142.1500 223° Southwest 479 551 38,000  Level FlightAware Transoceanic
Fri 05:59:00 PM 42.2707 -142.2729 223° Southwest 479 551 38,000  Level FlightAware Transoceanic
Fri 06:00:00 PM 42.1734 -142.3955 223° Southwest 479 551 38,000  Level FlightAware Transoceanic
Fri 06:01:00 PM 42.0759 -142.5177 223° Southwest 479 551 38,000  Level FlightAware Transoceanic
Fri 06:02:00 PM 41.9783 -142.6395 223° Southwest 479 551 38,000  Level FlightAware Transoceanic
Fri 06:03:00 PM 41.8805 -142.7610 223° Southwest 479 551 38,000  Level FlightAware Transoceanic
Fri 06:04:00 PM 41.7827 -142.8820 223° Southwest 479 551 38,000  Level FlightAware Transoceanic
Fri 06:05:00 PM 41.6847 -143.0027 223° Southwest 479 551 38,000  Level FlightAware Transoceanic
Fri 06:06:00 PM 41.5865 -143.1231 222° Southwest 479 551 38,000  Level FlightAware Transoceanic
Fri 06:07:00 PM 41.4883 -143.2430 222° Southwest 479 551 38,000  Level FlightAware Transoceanic
Fri 06:08:00 PM 41.3899 -143.3626 222° Southwest 479 551 38,000  Level FlightAware Transoceanic
Fri 06:09:00 PM 41.2914 -143.4819 222° Southwest 479 551 38,000  Level FlightAware Transoceanic
Fri 06:10:00 PM 41.1928 -143.6008 222° Southwest 479 551 38,000  Level FlightAware Transoceanic
Fri 06:11:00 PM 41.0940 -143.7193 222° Southwest 479 551 38,000  Level FlightAware Transoceanic
Fri 06:12:00 PM 40.9952 -143.8375 222° Southwest 479 551 38,000  Level FlightAware Transoceanic
Fri 06:13:00 PM 40.8962 -143.9553 222° Southwest 479 551 38,000  Level FlightAware Transoceanic
Fri 06:14:00 PM 40.7971 -144.0728 222° Southwest 479 551 38,000  Level FlightAware Transoceanic
Fri 06:15:00 PM 40.6978 -144.1899 222° Southwest 479 551 38,000  Level FlightAware Transoceanic
Fri 06:16:00 PM 40.5985 -144.3066 222° Southwest 479 551 38,000  Level FlightAware Transoceanic
Fri 06:17:00 PM 40.4990 -144.4230 222° Southwest 479 551 38,000  Level FlightAware Transoceanic
Fri 06:18:00 PM 40.3995 -144.5391 222° Southwest 479 551 38,000  Level FlightAware Transoceanic
Fri 06:19:00 PM 40.2998 -144.6548 221° Southwest 479 551 38,000  Level FlightAware Transoceanic
Fri 06:20:00 PM 40.2000 -144.7702 221° Southwest 479 551 38,000  Level FlightAware Transoceanic
Fri 06:21:00 PM 40.1000 -144.8853 221° Southwest 479 551 38,000  Level FlightAware Transoceanic
Fri 06:22:00 PM 40.0000 -145.0000 211° Southwest 479 551 38,000  Level FlightAware Transoceanic
Fri 06:23:00 PM 39.8871 -145.0898 211° Southwest 479 551 38,000 1,429 Level FlightAware Transoceanic
Fri 06:23:24 PM 40.0000 -145.0000 211° Southwest 468 539 40,000  Climbing Oakland Oceanic (ODAPS)
Fri 06:24:00 PM 39.7740 -145.1792 211° Southwest 479 551 38,000 -1,250 Descending FlightAware Transoceanic
Fri 06:25:00 PM 39.6609 -145.2684 211° Southwest 479 551 38,000  Level FlightAware Transoceanic
Fri 06:26:00 PM 39.5478 -145.3573 211° Southwest 479 551 38,000  Level FlightAware Transoceanic
Fri 06:27:00 PM 39.4346 -145.4459 211° Southwest 479 551 38,000  Level FlightAware Transoceanic
Fri 06:28:00 PM 39.3213 -145.5343 211° Southwest 479 551 38,000 1,000 Level FlightAware Transoceanic
Fri 06:29:00 PM 39.1091 -145.6987 211° Southwest 468 539 40,000 1,000 Climbing FlightAware Transoceanic
Fri 06:30:00 PM 38.9975 -145.7848 211° Southwest 468 539 40,000  Level FlightAware Transoceanic
Fri 06:31:00 PM 38.8858 -145.8706 211° Southwest 468 539 40,000  Level FlightAware Transoceanic
Fri 06:32:00 PM 38.7740 -145.9562 211° Southwest 468 539 40,000  Level FlightAware Transoceanic
Fri 06:33:00 PM 38.6622 -146.0415 211° Southwest 468 539 40,000  Level FlightAware Transoceanic
Fri 06:34:00 PM 38.5503 -146.1265 211° Southwest 468 539 40,000  Level FlightAware Transoceanic
Fri 06:35:00 PM 38.4383 -146.2112 211° Southwest 468 539 40,000  Level FlightAware Transoceanic
Fri 06:36:00 PM 38.3263 -146.2957 211° Southwest 468 539 40,000  Level FlightAware Transoceanic
Fri 06:37:00 PM 38.2142 -146.3799 211° Southwest 468 539 40,000  Level FlightAware Transoceanic
Fri 06:38:00 PM 38.1021 -146.4639 210° Southwest 468 539 40,000  Level FlightAware Transoceanic
Fri 06:39:00 PM 37.9899 -146.5476 210° Southwest 468 539 40,000  Level FlightAware Transoceanic
Fri 06:40:00 PM 37.8776 -146.6311 210° Southwest 468 539 40,000  Level FlightAware Transoceanic
Fri 06:41:00 PM 37.7653 -146.7143 210° Southwest 468 539 40,000  Level FlightAware Transoceanic
Fri 06:42:00 PM 37.6529 -146.7972 210° Southwest 468 539 40,000  Level FlightAware Transoceanic
Fri 06:43:00 PM 37.5405 -146.8799 210° Southwest 468 539 40,000  Level FlightAware Transoceanic
Fri 06:44:00 PM 37.4280 -146.9624 210° Southwest 468 539 40,000  Level FlightAware Transoceanic
Fri 06:45:00 PM 37.3154 -147.0446 210° Southwest 468 539 40,000  Level FlightAware Transoceanic
Fri 06:46:00 PM 37.2028 -147.1266 210° Southwest 468 539 40,000  Level FlightAware Transoceanic
Fri 06:47:00 PM 37.0902 -147.2083 210° Southwest 468 539 40,000  Level FlightAware Transoceanic
Fri 06:48:00 PM 36.9775 -147.2897 210° Southwest 468 539 40,000  Level FlightAware Transoceanic
Fri 06:49:00 PM 36.8647 -147.3710 210° Southwest 468 539 40,000  Level FlightAware Transoceanic
Fri 06:50:00 PM 36.7519 -147.4520 210° Southwest 468 539 40,000  Level FlightAware Transoceanic
Fri 06:51:00 PM 36.6390 -147.5327 210° Southwest 468 539 40,000  Level FlightAware Transoceanic
Fri 06:52:00 PM 36.5260 -147.6132 210° Southwest 468 539 40,000  Level FlightAware Transoceanic
Fri 06:53:00 PM 36.4131 -147.6935 210° Southwest 468 539 40,000  Level FlightAware Transoceanic
Fri 06:54:00 PM 36.3000 -147.7735 210° Southwest 468 539 40,000  Level FlightAware Transoceanic
Fri 06:55:00 PM 36.1869 -147.8534 210° Southwest 468 539 40,000  Level FlightAware Transoceanic
Fri 06:56:00 PM 36.0737 -147.9330 210° Southwest 468 539 40,000  Level FlightAware Transoceanic
Fri 06:57:00 PM 35.9605 -148.0123 210° Southwest 468 539 40,000  Level FlightAware Transoceanic
Fri 06:58:00 PM 35.8473 -148.0914 209° Southwest 468 539 40,000  Level FlightAware Transoceanic
Fri 06:59:00 PM 35.7340 -148.1703 209° Southwest 468 539 40,000  Level FlightAware Transoceanic
Fri 07:00:00 PM 35.6206 -148.2490 209° Southwest 468 539 40,000  Level FlightAware Transoceanic
Fri 07:01:00 PM 35.5072 -148.3275 209° Southwest 468 539 40,000  Level FlightAware Transoceanic
Fri 07:02:00 PM 35.3938 -148.4057 209° Southwest 468 539 40,000  Level FlightAware Transoceanic
Fri 07:03:00 PM 35.2803 -148.4837 209° Southwest 468 539 40,000  Level FlightAware Transoceanic
Fri 07:04:00 PM 35.1667 -148.5615 209° Southwest 468 539 40,000  Level FlightAware Transoceanic
Fri 07:05:00 PM 35.0531 -148.6391 209° Southwest 468 539 40,000  Level FlightAware Transoceanic
Fri 07:06:00 PM 34.9394 -148.7165 209° Southwest 468 539 40,000  Level FlightAware Transoceanic
Fri 07:07:00 PM 34.8257 -148.7936 209° Southwest 468 539 40,000  Level FlightAware Transoceanic
Fri 07:08:00 PM 34.7119 -148.8705 209° Southwest 468 539 40,000  Level FlightAware Transoceanic
Fri 07:09:00 PM 34.5981 -148.9473 209° Southwest 468 539 40,000  Level FlightAware Transoceanic
Fri 07:10:00 PM 34.4843 -149.0238 209° Southwest 468 539 40,000  Level FlightAware Transoceanic
Fri 07:11:00 PM 34.3704 -149.1001 209° Southwest 468 539 40,000  Level FlightAware Transoceanic
Fri 07:12:00 PM 34.2565 -149.1762 209° Southwest 468 539 40,000  Level FlightAware Transoceanic
Fri 07:13:00 PM 34.1424 -149.2521 209° Southwest 468 539 40,000  Level FlightAware Transoceanic
Fri 07:14:00 PM 34.0284 -149.3278 209° Southwest 468 539 40,000  Level FlightAware Transoceanic
Fri 07:15:00 PM 33.9143 -149.4033 209° Southwest 468 539 40,000  Level FlightAware Transoceanic
Fri 07:16:00 PM 33.8002 -149.4785 209° Southwest 468 539 40,000  Level FlightAware Transoceanic
Fri 07:17:00 PM 33.6860 -149.5536 209° Southwest 468 539 40,000  Level FlightAware Transoceanic
Fri 07:18:00 PM 33.5718 -149.6285 209° Southwest 468 539 40,000  Level FlightAware Transoceanic
Fri 07:19:00 PM 33.4575 -149.7032 209° Southwest 468 539 40,000  Level FlightAware Transoceanic
Fri 07:20:00 PM 33.3432 -149.7777 209° Southwest 468 539 40,000  Level FlightAware Transoceanic
Fri 07:21:00 PM 33.2289 -149.8520 208° Southwest 468 539 40,000  Level FlightAware Transoceanic
Fri 07:22:00 PM 33.1144 -149.9261 208° Southwest 468 539 40,000  Level FlightAware Transoceanic
Fri 07:23:00 PM 33.0000 -150.0000 217° Southwest 468 539 40,000  Level FlightAware Transoceanic
Fri 07:23:53 PM 33.0000 -150.0000 217° Southwest 436 502 40,000  Level Oakland Oceanic (ODAPS)
Fri 07:24:00 PM 32.9033 -150.0871 217° Southwest 468 539 40,000  Level FlightAware Transoceanic
Fri 07:25:00 PM 32.8064 -150.1741 217° Southwest 468 539 40,000  Level FlightAware Transoceanic
Fri 07:26:00 PM 32.7096 -150.2608 217° Southwest 468 539 40,000  Level FlightAware Transoceanic
Fri 07:27:00 PM 32.6127 -150.3473 217° Southwest 468 539 40,000  Level FlightAware Transoceanic
Fri 07:28:00 PM 32.5157 -150.4337 217° Southwest 468 539 40,000  Level FlightAware Transoceanic
Fri 07:29:00 PM 32.4186 -150.5199 217° Southwest 468 539 40,000  Level FlightAware Transoceanic
Fri 07:30:00 PM 32.2244 -150.6917 217° Southwest 436 502 40,000  Level FlightAware Transoceanic
Fri 07:31:00 PM 32.1272 -150.7773 217° Southwest 436 502 40,000  Level FlightAware Transoceanic
Fri 07:32:00 PM 32.0299 -150.8627 217° Southwest 436 502 40,000  Level FlightAware Transoceanic
Fri 07:33:00 PM 31.9326 -150.9480 217° Southwest 436 502 40,000  Level FlightAware Transoceanic
Fri 07:34:00 PM 31.8352 -151.0331 217° Southwest 436 502 40,000  Level FlightAware Transoceanic
Fri 07:35:00 PM 31.7377 -151.1180 217° Southwest 436 502 40,000  Level FlightAware Transoceanic
Fri 07:36:00 PM 31.6402 -151.2027 216° Southwest 436 502 40,000  Level FlightAware Transoceanic
Fri 07:37:00 PM 31.5427 -151.2872 216° Southwest 436 502 40,000  Level FlightAware Transoceanic
Fri 07:38:00 PM 31.4450 -151.3716 216° Southwest 436 502 40,000  Level FlightAware Transoceanic
Fri 07:39:00 PM 31.3474 -151.4558 216° Southwest 436 502 40,000  Level FlightAware Transoceanic
Fri 07:40:00 PM 31.2496 -151.5398 216° Southwest 436 502 40,000  Level FlightAware Transoceanic
Fri 07:41:00 PM 31.1519 -151.6237 216° Southwest 436 502 40,000  Level FlightAware Transoceanic
Fri 07:42:00 PM 31.0540 -151.7074 216° Southwest 436 502 40,000  Level FlightAware Transoceanic
Fri 07:43:00 PM 30.9562 -151.7908 216° Southwest 436 502 40,000  Level FlightAware Transoceanic
Fri 07:44:00 PM 30.8582 -151.8742 216° Southwest 436 502 40,000  Level FlightAware Transoceanic
Fri 07:45:00 PM 30.7602 -151.9573 216° Southwest 436 502 40,000  Level FlightAware Transoceanic
Fri 07:46:00 PM 30.6622 -152.0403 216° Southwest 436 502 40,000  Level FlightAware Transoceanic
Fri 07:47:00 PM 30.5641 -152.1231 216° Southwest 436 502 40,000  Level FlightAware Transoceanic
Fri 07:48:00 PM 30.4659 -152.2058 216° Southwest 436 502 40,000  Level FlightAware Transoceanic
Fri 07:49:00 PM 30.3677 -152.2883 216° Southwest 436 502 40,000  Level FlightAware Transoceanic
Fri 07:50:00 PM 30.2695 -152.3706 216° Southwest 436 502 40,000  Level FlightAware Transoceanic
Fri 07:51:00 PM 30.1712 -152.4528 216° Southwest 436 502 40,000  Level FlightAware Transoceanic
Fri 07:52:00 PM 30.0728 -152.5348 216° Southwest 436 502 40,000  Level FlightAware Transoceanic
Fri 07:53:00 PM 29.9744 -152.6166 216° Southwest 436 502 40,000  Level FlightAware Transoceanic
Fri 07:54:00 PM 29.8759 -152.6983 216° Southwest 436 502 40,000  Level FlightAware Transoceanic
Fri 07:55:00 PM 29.7774 -152.7798 216° Southwest 436 502 40,000  Level FlightAware Transoceanic
Fri 07:56:00 PM 29.6789 -152.8611 216° Southwest 436 502 40,000  Level FlightAware Transoceanic
Fri 07:57:00 PM 29.5803 -152.9423 216° Southwest 436 502 40,000  Level FlightAware Transoceanic
Fri 07:58:00 PM 29.4816 -153.0233 216° Southwest 436 502 40,000  Level FlightAware Transoceanic
Fri 07:59:00 PM 29.3829 -153.1042 215° Southwest 436 502 40,000  Level FlightAware Transoceanic
Fri 08:00:00 PM 29.2841 -153.1849 215° Southwest 436 502 40,000  Level FlightAware Transoceanic
Fri 08:01:00 PM 29.1854 -153.2655 215° Southwest 436 502 40,000  Level FlightAware Transoceanic
Fri 08:02:00 PM 29.0865 -153.3459 215° Southwest 436 502 40,000  Level FlightAware Transoceanic
Fri 08:03:00 PM 28.9876 -153.4261 215° Southwest 436 502 40,000  Level FlightAware Transoceanic
Fri 08:04:00 PM 28.8887 -153.5062 215° Southwest 436 502 40,000  Level FlightAware Transoceanic
Fri 08:05:00 PM 28.7897 -153.5862 215° Southwest 436 502 40,000  Level FlightAware Transoceanic
Fri 08:06:00 PM 28.6906 -153.6660 215° Southwest 436 502 40,000  Level FlightAware Transoceanic
Fri 08:07:00 PM 28.5915 -153.7456 215° Southwest 436 502 40,000  Level FlightAware Transoceanic
Fri 08:08:00 PM 28.4924 -153.8251 215° Southwest 436 502 40,000  Level FlightAware Transoceanic
Fri 08:09:00 PM 28.3932 -153.9044 215° Southwest 436 502 40,000  Level FlightAware Transoceanic
Fri 08:10:00 PM 28.2940 -153.9836 215° Southwest 436 502 40,000  Level FlightAware Transoceanic
Fri 08:11:00 PM 28.1947 -154.0627 215° Southwest 436 502 40,000  Level FlightAware Transoceanic
Fri 08:12:00 PM 28.0954 -154.1416 215° Southwest 436 502 40,000  Level FlightAware Transoceanic
Fri 08:13:00 PM 27.9960 -154.2203 215° Southwest 436 502 40,000  Level FlightAware Transoceanic
Fri 08:14:00 PM 27.8966 -154.2989 215° Southwest 436 502 40,000  Level FlightAware Transoceanic
Fri 08:15:00 PM 27.7972 -154.3774 215° Southwest 436 502 40,000  Level FlightAware Transoceanic
Fri 08:16:00 PM 27.6977 -154.4557 215° Southwest 436 502 40,000  Level FlightAware Transoceanic
Fri 08:17:00 PM 27.5982 -154.5339 215° Southwest 436 502 40,000  Level FlightAware Transoceanic
Fri 08:18:00 PM 27.4986 -154.6119 215° Southwest 436 502 40,000  Level FlightAware Transoceanic
Fri 08:19:00 PM 27.3989 -154.6898 215° Southwest 436 502 40,000  Level FlightAware Transoceanic
Fri 08:20:00 PM 27.2993 -154.7676 215° Southwest 436 502 40,000  Level FlightAware Transoceanic
Fri 08:21:00 PM 27.1996 -154.8452 215° Southwest 436 502 40,000  Level FlightAware Transoceanic
Fri 08:22:00 PM 27.0998 -154.9227 215° Southwest 436 502 40,000  Level FlightAware Transoceanic
Fri 08:23:00 PM 27.0000 -155.0000 216° Southwest 436 502 40,000  Level FlightAware Transoceanic
Fri 08:23:59 PM 27.0000 -155.0000 216° Southwest 441 507 40,000  Level Oakland Oceanic (ODAPS)
Fri 08:24:00 PM 26.9004 -155.0799 216° Southwest 436 502 40,000  Level FlightAware Transoceanic
Fri 08:25:00 PM 26.8007 -155.1596 215° Southwest 436 502 40,000  Level FlightAware Transoceanic
Fri 08:26:00 PM 26.7010 -155.2392 215° Southwest 436 502 40,000  Level FlightAware Transoceanic
Fri 08:27:00 PM 26.6012 -155.3186 215° Southwest 436 502 40,000  Level FlightAware Transoceanic
Fri 08:28:00 PM 26.5014 -155.3979 215° Southwest 436 502 40,000  Level FlightAware Transoceanic
Fri 08:29:00 PM 26.4016 -155.4771 215° Southwest 436 502 40,000  Level FlightAware Transoceanic
Fri 08:30:00 PM 26.1017 -155.7138 215° Southwest 441 507 40,000  Level FlightAware Transoceanic
Fri 08:31:00 PM 26.0017 -155.7924 215° Southwest 441 507 40,000  Level FlightAware Transoceanic
Fri 08:32:00 PM 25.9016 -155.8709 215° Southwest 441 507 40,000  Level FlightAware Transoceanic
Fri 08:33:00 PM 25.8015 -155.9493 215° Southwest 441 507 40,000  Level FlightAware Transoceanic
Fri 08:34:00 PM 25.7014 -156.0275 215° Southwest 441 507 40,000  Level FlightAware Transoceanic
Fri 08:35:00 PM 25.6012 -156.1056 215° Southwest 441 507 40,000  Level FlightAware Transoceanic
Fri 08:36:00 PM 25.5009 -156.1835 215° Southwest 441 507 40,000  Level FlightAware Transoceanic
Fri 08:37:00 PM 25.4007 -156.2614 215° Southwest 441 507 40,000  Level FlightAware Transoceanic
Fri 08:38:00 PM 25.3004 -156.3391 215° Southwest 441 507 40,000  Level FlightAware Transoceanic
Fri 08:39:00 PM 25.2000 -156.4167 175° South 441 507 40,000  Level FlightAware Transoceanic
Fri 08:39:29 PM 25.2000 -156.3833 175° South 450 518 40,000  Level Honolulu Center
Fri 08:40:00 PM 25.0722 -156.4055 175° South 441 507 40,000  Level FlightAware Transoceanic
Fri 08:40:29 PM 25.0667 -156.4167 193° South 430 495 40,000  Level Honolulu Center
Fri 08:41:00 PM 24.9445 -156.3943 175° South 441 507 40,000  Level FlightAware Transoceanic
Fri 08:41:29 PM 24.9500 -156.4000 173° South 450 518 40,000  Level Honolulu Center
Fri 08:42:00 PM 24.8167 -156.3831 175° South 441 507 40,000  Level FlightAware Transoceanic
Fri 08:42:29 PM 24.8167 -156.4000 180° South 460 529 40,000  Level Honolulu Center
Fri 08:43:00 PM 24.6889 -156.3720 175° South 441 507 40,000  Level FlightAware Transoceanic
Fri 08:43:30 PM 24.6833 -156.4000 180° South 460 529 40,000  Level Honolulu Center
Fri 08:44:00 PM 24.5611 -156.3609 175° South 441 507 40,000  Level FlightAware Transoceanic
Fri 08:44:30 PM 24.5667 -156.4000 180° South 460 529 40,000  Level Honolulu Center
Fri 08:45:30 PM 24.4333 -156.4000 180° South 460 529 40,000  Level Honolulu Center
Fri 08:46:30 PM 24.3000 -156.4000 180° South 460 529 40,000  Level Honolulu Center
Fri 08:47:30 PM 24.1833 -156.4000 180° South 460 529 40,000  Level Honolulu Center
Fri 08:48:30 PM 24.0500 -156.4000 180° South 460 529 40,000  Level Honolulu Center
Fri 08:49:30 PM 23.9333 -156.4000 180° South 450 518 40,000  Level Honolulu Center
Fri 08:50:30 PM 23.8000 -156.4000 180° South 460 529 40,000  Level Honolulu Center
Fri 08:51:30 PM 23.6667 -156.4000 180° South 450 518 40,000  Level Honolulu Center
Fri 08:52:31 PM 23.5500 -156.4000 180° South 450 518 40,000  Level Honolulu Center
Fri 08:53:31 PM 23.4167 -156.4000 180° South 440 506 40,000  Level Honolulu Center
Fri 08:54:31 PM 23.3000 -156.4000 180° South 450 518 40,000  Level Honolulu Center
Fri 08:55:31 PM 23.1667 -156.4000 180° South 450 518 40,000 -50 Level Honolulu Center
Fri 08:56:31 PM 23.0500 -156.4167 187° South 450 518 39,900 -700 Descending Honolulu Center
Fri 08:57:31 PM 22.9167 -156.4167 180° South 460 529 38,600 -1,900 Descending Honolulu Center
Fri 08:58:31 PM 22.7833 -156.4167 180° South 460 529 36,100 -2,450 Descending Honolulu Center
Fri 08:59:31 PM 22.6667 -156.4000 172° South 460 529 33,700 -2,450 Descending Honolulu Center
Fri 09:00:31 PM 22.5333 -156.4167 187° South 460 529 31,200 -2,430 Descending Honolulu Center
Fri 09:01:32 PM 22.4167 -156.4167 180° South 450 518 28,800 -2,380 Descending Honolulu Center
Fri 09:02:32 PM 22.2833 -156.4167 180° South 440 506 26,400 -2,350 Descending Honolulu Center
Fri 09:03:32 PM 22.1667 -156.4167 180° South 430 495 24,100 -2,250 Descending Honolulu Center
Fri 09:04:32 PM 22.0500 -156.4167 180° South 420 483 21,900 -2,250 Descending Honolulu Center
Fri 09:05:32 PM 21.9333 -156.4167 180° South 400 460 19,600 -2,100 Descending Honolulu Center
Fri 09:06:32 PM 21.8333 -156.4167 180° South 380 437 17,700 -2,000 Descending Honolulu Center
Fri 09:07:32 PM 21.7167 -156.4167 180° South 370 426 15,600 -1,800 Descending Honolulu Center
Fri 09:08:32 PM 21.6167 -156.4167 180° South 360 414 14,100 -1,537 Descending Honolulu Center
Fri 09:09:33 PM 21.5000 -156.4167 180° South 350 403 12,500 -1,500 Descending Honolulu Center
Fri 09:10:32 PM 21.4167 -156.4167 180° South 330 380 11,100 -1,361 Descending Honolulu Center
Fri 09:11:32 PM 21.3333 -156.4167 180° South 310 357 9,800 -1,339 Descending Honolulu Center
Fri 09:12:33 PM 21.2500 -156.3667 151° Southeast 290 334 8,400 -1,488 Descending Honolulu Center
Fri 09:13:33 PM 21.1833 -156.3500 167° South 290 334 6,800 -1,800 Descending Honolulu Center
Fri 09:14:33 PM 21.1000 -156.3333 169° South 280 322 4,800 -1,400 Descending Honolulu Center
Fri 09:15:33 PM 21.0333 -156.3333 180° South 250 288 4,000 -400 Descending Honolulu Center
Fri 09:16:33 PM 20.9667 -156.3500 193° South 230 265 4,000 -250 Level Honolulu Center
Fri 09:17:33 PM 20.9000 -156.3833 205° Southwest 250 288 3,500 -450 Descending Honolulu Center
Fri 09:18:33 PM 20.8333 -156.4167 205° Southwest 250 288 3,100 -298 Descending Honolulu Center
Fri 09:19:34 PM 20.8000 -156.4500 223° Southwest 210 242 2,900 -942 Descending Honolulu Center
Fri 09:20:34 PM 20.8333 -156.4500 360° North 150 173 1,200 -1,200 Descending Honolulu Center
Fri 09:21:34 PM 20.8667 -156.4333 25° Northeast 110 127 500 -700 Descending Honolulu Center

Login

Don't have an account? Register now (free) for customized features, flight alerts, and more!